sensor_id;sensor_type;location;lat;lon;timestamp;temperature;humidity
7206;DHT22;3644;53.480;10.004;2023-04-30T00:01:28;8.40;99.90
7206;DHT22;3644;53.480;10.004;2023-04-30T00:03:54;8.30;99.90
7206;DHT22;3644;53.480;10.004;2023-04-30T00:06:20;8.50;99.90
7206;DHT22;3644;53.480;10.004;2023-04-30T00:08:45;8.20;99.90
7206;DHT22;3644;53.480;10.004;2023-04-30T00:11:11;8.30;99.90
7206;DHT22;3644;53.480;10.004;2023-04-30T00:13:36;8.20;99.90
7206;DHT22;3644;53.480;10.004;2023-04-30T00:16:02;8.10;99.90
7206;DHT22;3644;53.480;10.004;2023-04-30T00:18:27;8.10;99.90
7206;DHT22;3644;53.480;10.004;2023-04-30T00:20:53;8.20;99.90
7206;DHT22;3644;53.480;10.004;2023-04-30T00:23:18;8.20;99.90
7206;DHT22;3644;53.480;10.004;2023-04-30T00:25:44;8.20;99.90
7206;DHT22;3644;53.480;10.004;2023-04-30T00:28:09;8.20;99.90
7206;DHT22;3644;53.480;10.004;2023-04-30T00:30:35;8.20;99.90
7206;DHT22;3644;53.480;10.004;2023-04-30T00:33:00;8.00;99.90
7206;DHT22;3644;53.480;10.004;2023-04-30T00:35:26;8.00;99.90
7206;DHT22;3644;53.480;10.004;2023-04-30T00:37:51;8.00;99.90
7206;DHT22;3644;53.480;10.004;2023-04-30T00:40:17;8.00;99.90
7206;DHT22;3644;53.480;10.004;2023-04-30T00:42:42;8.10;99.90
7206;DHT22;3644;53.480;10.004;2023-04-30T00:45:08;7.90;99.90
7206;DHT22;3644;53.480;10.004;2023-04-30T00:47:34;7.90;99.90
7206;DHT22;3644;53.480;10.004;2023-04-30T00:49:59;7.90;99.90
7206;DHT22;3644;53.480;10.004;2023-04-30T00:52:26;7.90;99.90
7206;DHT22;3644;53.480;10.004;2023-04-30T00:54:51;8.00;99.90
7206;DHT22;3644;53.480;10.004;2023-04-30T00:57:19;7.80;99.90
7206;DHT22;3644;53.480;10.004;2023-04-30T00:59:45;7.60;99.90
7206;DHT22;3644;53.480;10.004;2023-04-30T01:02:12;7.70;99.90
7206;DHT22;3644;53.480;10.004;2023-04-30T01:04:37;7.70;99.90
7206;DHT22;3644;53.480;10.004;2023-04-30T01:07:04;7.70;99.90
7206;DHT22;3644;53.480;10.004;2023-04-30T01:09:30;7.80;99.90
7206;DHT22;3644;53.480;10.004;2023-04-30T01:12:07;7.70;99.90
7206;DHT22;3644;53.480;10.004;2023-04-30T01:15:06;7.60;99.90
7206;DHT22;3644;53.480;10.004;2023-04-30T01:17:37;7.70;99.90
7206;DHT22;3644;53.480;10.004;2023-04-30T01:20:06;7.80;99.90
7206;DHT22;3644;53.480;10.004;2023-04-30T01:28:19;7.60;99.90
7206;DHT22;3644;53.480;10.004;2023-04-30T01:30:45;7.90;99.90
7206;DHT22;3644;53.480;10.004;2023-04-30T01:33:12;7.90;99.90
7206;DHT22;3644;53.480;10.004;2023-04-30T01:36:06;7.80;99.90
7206;DHT22;3644;53.480;10.004;2023-04-30T01:46:53;7.90;99.90
7206;DHT22;3644;53.480;10.004;2023-04-30T01:52:15;7.90;99.90
7206;DHT22;3644;53.480;10.004;2023-04-30T01:54:50;8.00;99.90
7206;DHT22;3644;53.480;10.004;2023-04-30T01:57:45;8.10;99.90
7206;DHT22;3644;53.480;10.004;2023-04-30T02:00:15;8.00;99.90
7206;DHT22;3644;53.480;10.004;2023-04-30T02:02:42;8.00;99.90
7206;DHT22;3644;53.480;10.004;2023-04-30T02:05:07;8.00;99.90
7206;DHT22;3644;53.480;10.004;2023-04-30T02:07:39;8.00;99.90
7206;DHT22;3644;53.480;10.004;2023-04-30T02:10:06;7.90;99.90
7206;DHT22;3644;53.480;10.004;2023-04-30T02:12:31;7.80;99.90
7206;DHT22;3644;53.480;10.004;2023-04-30T02:14:57;7.80;99.90
7206;DHT22;3644;53.480;10.004;2023-04-30T02:17:22;7.80;99.90
7206;DHT22;3644;53.480;10.004;2023-04-30T02:19:48;7.70;99.90
7206;DHT22;3644;53.480;10.004;2023-04-30T02:22:13;7.70;99.90
7206;DHT22;3644;53.480;10.004;2023-04-30T02:24:39;7.80;99.90
7206;DHT22;3644;53.480;10.004;2023-04-30T02:27:04;7.70;99.90
7206;DHT22;3644;53.480;10.004;2023-04-30T02:29:30;7.70;99.90
7206;DHT22;3644;53.480;10.004;2023-04-30T02:31:58;7.70;99.90
7206;DHT22;3644;53.480;10.004;2023-04-30T02:34:24;7.80;99.90
7206;DHT22;3644;53.480;10.004;2023-04-30T02:36:50;7.80;99.90
7206;DHT22;3644;53.480;10.004;2023-04-30T02:39:15;7.70;99.90
7206;DHT22;3644;53.480;10.004;2023-04-30T02:41:41;7.70;99.90
7206;DHT22;3644;53.480;10.004;2023-04-30T02:44:06;7.80;99.90
7206;DHT22;3644;53.480;10.004;2023-04-30T02:46:32;7.70;99.90
7206;DHT22;3644;53.480;10.004;2023-04-30T02:48:57;7.70;99.90
7206;DHT22;3644;53.480;10.004;2023-04-30T02:51:23;7.60;99.90
7206;DHT22;3644;53.480;10.004;2023-04-30T02:53:48;7.60;99.90
7206;DHT22;3644;53.480;10.004;2023-04-30T02:56:14;7.60;99.90
7206;DHT22;3644;53.480;10.004;2023-04-30T02:58:39;7.60;99.90
7206;DHT22;3644;53.480;10.004;2023-04-30T03:01:05;7.50;99.90
7206;DHT22;3644;53.480;10.004;2023-04-30T03:03:31;7.40;99.90
7206;DHT22;3644;53.480;10.004;2023-04-30T03:05:58;7.40;99.90
7206;DHT22;3644;53.480;10.004;2023-04-30T03:08:24;7.30;99.90
7206;DHT22;3644;53.480;10.004;2023-04-30T03:10:49;7.30;99.90
7206;DHT22;3644;53.480;10.004;2023-04-30T03:13:15;7.30;99.90
7206;DHT22;3644;53.480;10.004;2023-04-30T03:15:40;7.20;99.90
7206;DHT22;3644;53.480;10.004;2023-04-30T03:18:06;7.20;99.90
7206;DHT22;3644;53.480;10.004;2023-04-30T03:20:31;7.20;99.90
7206;DHT22;3644;53.480;10.004;2023-04-30T03:22:57;7.20;99.90
7206;DHT22;3644;53.480;10.004;2023-04-30T03:25:22;7.10;99.90
7206;DHT22;3644;53.480;10.004;2023-04-30T03:27:48;7.10;99.90
7206;DHT22;3644;53.480;10.004;2023-04-30T03:30:13;7.00;99.90
7206;DHT22;3644;53.480;10.004;2023-04-30T03:32:39;7.00;99.90
7206;DHT22;3644;53.480;10.004;2023-04-30T03:35:05;7.00;99.90
7206;DHT22;3644;53.480;10.004;2023-04-30T03:37:30;6.90;99.90
7206;DHT22;3644;53.480;10.004;2023-04-30T03:39:56;6.90;99.90
7206;DHT22;3644;53.480;10.004;2023-04-30T03:42:21;6.90;99.90
7206;DHT22;3644;53.480;10.004;2023-04-30T03:44:47;6.80;99.90
7206;DHT22;3644;53.480;10.004;2023-04-30T03:47:12;6.90;99.90
7206;DHT22;3644;53.480;10.004;2023-04-30T03:49:38;6.90;99.90
7206;DHT22;3644;53.480;10.004;2023-04-30T03:52:04;6.90;99.90
7206;DHT22;3644;53.480;10.004;2023-04-30T03:54:30;6.70;99.90
7206;DHT22;3644;53.480;10.004;2023-04-30T03:56:58;6.70;99.90
7206;DHT22;3644;53.480;10.004;2023-04-30T03:59:23;6.70;99.90
7206;DHT22;3644;53.480;10.004;2023-04-30T04:01:49;6.80;99.90
7206;DHT22;3644;53.480;10.004;2023-04-30T04:04:15;6.90;99.90
7206;DHT22;3644;53.480;10.004;2023-04-30T04:06:41;6.80;99.90
7206;DHT22;3644;53.480;10.004;2023-04-30T04:09:07;6.80;99.90
7206;DHT22;3644;53.480;10.004;2023-04-30T04:11:32;6.80;99.90
7206;DHT22;3644;53.480;10.004;2023-04-30T04:13:59;6.70;99.90
7206;DHT22;3644;53.480;10.004;2023-04-30T04:16:24;6.70;99.90
7206;DHT22;3644;53.480;10.004;2023-04-30T04:18:51;6.80;99.90
7206;DHT22;3644;53.480;10.004;2023-04-30T04:21:17;6.80;99.90
7206;DHT22;3644;53.480;10.004;2023-04-30T04:23:43;6.90;99.90
7206;DHT22;3644;53.480;10.004;2023-04-30T04:26:08;6.90;99.90
7206;DHT22;3644;53.480;10.004;2023-04-30T04:28:35;6.90;99.90
7206;DHT22;3644;53.480;10.004;2023-04-30T04:31:01;6.80;99.90
7206;DHT22;3644;53.480;10.004;2023-04-30T04:33:27;6.80;99.90
7206;DHT22;3644;53.480;10.004;2023-04-30T04:35:53;6.90;99.90
7206;DHT22;3644;53.480;10.004;2023-04-30T04:38:18;6.80;99.90
7206;DHT22;3644;53.480;10.004;2023-04-30T04:40:54;6.90;99.90
7206;DHT22;3644;53.480;10.004;2023-04-30T04:43:20;7.00;99.90
7206;DHT22;3644;53.480;10.004;2023-04-30T04:45:45;7.10;99.90
7206;DHT22;3644;53.480;10.004;2023-04-30T04:48:12;7.10;99.90
7206;DHT22;3644;53.480;10.004;2023-04-30T04:50:38;7.20;99.90
7206;DHT22;3644;53.480;10.004;2023-04-30T04:53:03;7.20;99.90
7206;DHT22;3644;53.480;10.004;2023-04-30T04:55:29;7.20;99.90
7206;DHT22;3644;53.480;10.004;2023-04-30T04:57:54;7.20;99.90
7206;DHT22;3644;53.480;10.004;2023-04-30T05:00:20;7.20;99.90
7206;DHT22;3644;53.480;10.004;2023-04-30T05:02:47;7.30;99.90
7206;DHT22;3644;53.480;10.004;2023-04-30T05:05:13;7.30;99.90
7206;DHT22;3644;53.480;10.004;2023-04-30T05:07:39;7.30;99.90
7206;DHT22;3644;53.480;10.004;2023-04-30T05:10:05;7.40;99.90
7206;DHT22;3644;53.480;10.004;2023-04-30T05:12:31;7.40;99.90
7206;DHT22;3644;53.480;10.004;2023-04-30T05:14:57;7.30;99.90
7206;DHT22;3644;53.480;10.004;2023-04-30T05:17:22;7.40;99.90
7206;DHT22;3644;53.480;10.004;2023-04-30T05:19:47;7.40;99.90
7206;DHT22;3644;53.480;10.004;2023-04-30T05:22:15;7.60;99.90
7206;DHT22;3644;53.480;10.004;2023-04-30T05:24:40;7.60;99.90
7206;DHT22;3644;53.480;10.004;2023-04-30T05:27:06;7.80;99.90
7206;DHT22;3644;53.480;10.004;2023-04-30T05:29:32;7.80;99.90
7206;DHT22;3644;53.480;10.004;2023-04-30T05:31:58;7.80;99.90
7206;DHT22;3644;53.480;10.004;2023-04-30T05:34:23;7.90;99.90
7206;DHT22;3644;53.480;10.004;2023-04-30T05:36:49;7.90;99.90
7206;DHT22;3644;53.480;10.004;2023-04-30T05:39:15;8.00;99.90
7206;DHT22;3644;53.480;10.004;2023-04-30T05:41:40;8.00;99.90
7206;DHT22;3644;53.480;10.004;2023-04-30T05:44:05;8.10;99.90
7206;DHT22;3644;53.480;10.004;2023-04-30T05:46:31;8.10;99.90
7206;DHT22;3644;53.480;10.004;2023-04-30T05:48:57;8.00;99.90
7206;DHT22;3644;53.480;10.004;2023-04-30T05:51:22;8.00;99.90
7206;DHT22;3644;53.480;10.004;2023-04-30T05:53:48;8.10;99.90
7206;DHT22;3644;53.480;10.004;2023-04-30T05:56:14;8.10;99.90
7206;DHT22;3644;53.480;10.004;2023-04-30T05:58:39;8.00;99.90
7206;DHT22;3644;53.480;10.004;2023-04-30T06:01:05;8.00;99.90
7206;DHT22;3644;53.480;10.004;2023-04-30T06:03:30;8.10;99.90
7206;DHT22;3644;53.480;10.004;2023-04-30T06:05:56;8.20;99.90
7206;DHT22;3644;53.480;10.004;2023-04-30T06:08:22;8.20;99.90
7206;DHT22;3644;53.480;10.004;2023-04-30T06:10:47;8.30;99.90
7206;DHT22;3644;53.480;10.004;2023-04-30T06:13:13;8.50;99.90
7206;DHT22;3644;53.480;10.004;2023-04-30T06:15:39;8.70;99.90
7206;DHT22;3644;53.480;10.004;2023-04-30T06:18:06;8.80;99.90
7206;DHT22;3644;53.480;10.004;2023-04-30T06:20:31;9.20;99.90
7206;DHT22;3644;53.480;10.004;2023-04-30T06:22:57;9.50;99.90
7206;DHT22;3644;53.480;10.004;2023-04-30T06:25:22;9.50;99.90
7206;DHT22;3644;53.480;10.004;2023-04-30T06:27:48;9.50;99.90
7206;DHT22;3644;53.480;10.004;2023-04-30T06:30:16;9.30;99.90
7206;DHT22;3644;53.480;10.004;2023-04-30T06:32:41;9.30;99.90
7206;DHT22;3644;53.480;10.004;2023-04-30T06:35:07;9.50;99.90
7206;DHT22;3644;53.480;10.004;2023-04-30T06:37:33;9.50;99.90
7206;DHT22;3644;53.480;10.004;2023-04-30T06:40:02;9.60;99.90
7206;DHT22;3644;53.480;10.004;2023-04-30T06:42:29;9.70;99.90
7206;DHT22;3644;53.480;10.004;2023-04-30T06:44:59;9.70;99.90
7206;DHT22;3644;53.480;10.004;2023-04-30T06:47:25;9.90;99.90
7206;DHT22;3644;53.480;10.004;2023-04-30T06:49:51;10.00;99.90
7206;DHT22;3644;53.480;10.004;2023-04-30T06:52:16;9.90;99.90
7206;DHT22;3644;53.480;10.004;2023-04-30T06:54:42;9.90;99.90
7206;DHT22;3644;53.480;10.004;2023-04-30T06:57:08;10.10;99.90
7206;DHT22;3644;53.480;10.004;2023-04-30T06:59:33;10.20;99.90
7206;DHT22;3644;53.480;10.004;2023-04-30T07:01:59;10.20;99.90
7206;DHT22;3644;53.480;10.004;2023-04-30T07:04:24;10.50;99.90
7206;DHT22;3644;53.480;10.004;2023-04-30T07:06:50;10.60;99.90
7206;DHT22;3644;53.480;10.004;2023-04-30T07:09:16;10.50;99.90
7206;DHT22;3644;53.480;10.004;2023-04-30T07:11:41;10.80;99.90
7206;DHT22;3644;53.480;10.004;2023-04-30T07:14:07;10.60;99.90
7206;DHT22;3644;53.480;10.004;2023-04-30T07:16:33;10.70;99.90
7206;DHT22;3644;53.480;10.004;2023-04-30T07:18:58;10.90;99.90
7206;DHT22;3644;53.480;10.004;2023-04-30T07:21:24;11.00;99.90
7206;DHT22;3644;53.480;10.004;2023-04-30T07:23:50;10.80;99.90
7206;DHT22;3644;53.480;10.004;2023-04-30T07:26:16;10.60;99.90
7206;DHT22;3644;53.480;10.004;2023-04-30T07:28:41;10.70;99.90
7206;DHT22;3644;53.480;10.004;2023-04-30T07:31:07;10.60;99.90
7206;DHT22;3644;53.480;10.004;2023-04-30T07:33:32;10.60;99.90
7206;DHT22;3644;53.480;10.004;2023-04-30T07:35:58;11.00;99.90
7206;DHT22;3644;53.480;10.004;2023-04-30T07:38:24;10.90;99.90
7206;DHT22;3644;53.480;10.004;2023-04-30T07:40:49;10.60;99.90
7206;DHT22;3644;53.480;10.004;2023-04-30T07:43:15;10.50;99.90
7206;DHT22;3644;53.480;10.004;2023-04-30T07:45:40;10.60;99.90
7206;DHT22;3644;53.480;10.004;2023-04-30T07:48:06;10.70;99.90
7206;DHT22;3644;53.480;10.004;2023-04-30T07:50:32;10.90;99.90
7206;DHT22;3644;53.480;10.004;2023-04-30T07:52:58;11.10;99.90
7206;DHT22;3644;53.480;10.004;2023-04-30T07:55:25;11.10;99.90
7206;DHT22;3644;53.480;10.004;2023-04-30T07:57:50;11.10;99.90
7206;DHT22;3644;53.480;10.004;2023-04-30T08:00:15;11.10;99.90
7206;DHT22;3644;53.480;10.004;2023-04-30T08:02:42;11.20;99.90
7206;DHT22;3644;53.480;10.004;2023-04-30T08:05:10;11.40;99.90
7206;DHT22;3644;53.480;10.004;2023-04-30T08:07:35;11.20;99.90
7206;DHT22;3644;53.480;10.004;2023-04-30T08:10:01;11.40;99.90
7206;DHT22;3644;53.480;10.004;2023-04-30T08:12:27;11.40;99.90
7206;DHT22;3644;53.480;10.004;2023-04-30T08:15:02;11.30;99.90
7206;DHT22;3644;53.480;10.004;2023-04-30T08:17:29;11.40;99.90
7206;DHT22;3644;53.480;10.004;2023-04-30T08:19:55;11.50;99.90
7206;DHT22;3644;53.480;10.004;2023-04-30T08:22:21;11.40;99.90
7206;DHT22;3644;53.480;10.004;2023-04-30T08:24:47;11.40;99.90
7206;DHT22;3644;53.480;10.004;2023-04-30T08:27:13;11.60;99.90
7206;DHT22;3644;53.480;10.004;2023-04-30T08:29:38;11.70;99.90
7206;DHT22;3644;53.480;10.004;2023-04-30T08:32:04;11.70;99.90
7206;DHT22;3644;53.480;10.004;2023-04-30T08:34:30;11.80;99.90
7206;DHT22;3644;53.480;10.004;2023-04-30T08:36:56;11.90;99.90
7206;DHT22;3644;53.480;10.004;2023-04-30T08:39:21;11.90;99.90
7206;DHT22;3644;53.480;10.004;2023-04-30T08:41:55;12.20;99.90
7206;DHT22;3644;53.480;10.004;2023-04-30T08:44:22;12.30;99.90
7206;DHT22;3644;53.480;10.004;2023-04-30T08:46:53;12.20;99.90
7206;DHT22;3644;53.480;10.004;2023-04-30T08:49:20;12.30;99.90
7206;DHT22;3644;53.480;10.004;2023-04-30T08:51:46;12.40;99.90
7206;DHT22;3644;53.480;10.004;2023-04-30T08:54:12;12.50;99.90
7206;DHT22;3644;53.480;10.004;2023-04-30T08:56:39;12.50;99.90
7206;DHT22;3644;53.480;10.004;2023-04-30T08:59:06;12.40;99.90
7206;DHT22;3644;53.480;10.004;2023-04-30T09:01:33;12.30;99.90
7206;DHT22;3644;53.480;10.004;2023-04-30T09:03:59;12.40;99.90
7206;DHT22;3644;53.480;10.004;2023-04-30T09:06:27;12.60;99.90
7206;DHT22;3644;53.480;10.004;2023-04-30T09:08:53;12.50;98.70
7206;DHT22;3644;53.480;10.004;2023-04-30T09:11:29;12.40;99.90
7206;DHT22;3644;53.480;10.004;2023-04-30T09:14:00;12.40;99.90
7206;DHT22;3644;53.480;10.004;2023-04-30T09:16:28;12.80;99.90
7206;DHT22;3644;53.480;10.004;2023-04-30T09:18:58;12.80;98.60
7206;DHT22;3644;53.480;10.004;2023-04-30T09:21:31;12.50;99.00
7206;DHT22;3644;53.480;10.004;2023-04-30T09:24:01;12.60;99.90
7206;DHT22;3644;53.480;10.004;2023-04-30T09:26:31;12.80;99.30
7206;DHT22;3644;53.480;10.004;2023-04-30T09:28:58;12.90;99.10
7206;DHT22;3644;53.480;10.004;2023-04-30T09:31:24;12.80;98.10
7206;DHT22;3644;53.480;10.004;2023-04-30T09:33:50;12.70;97.70
7206;DHT22;3644;53.480;10.004;2023-04-30T09:36:16;12.90;98.10
7206;DHT22;3644;53.480;10.004;2023-04-30T09:38:42;13.00;99.00
7206;DHT22;3644;53.480;10.004;2023-04-30T09:41:26;13.20;96.20
7206;DHT22;3644;53.480;10.004;2023-04-30T09:43:56;13.30;94.40
7206;DHT22;3644;53.480;10.004;2023-04-30T09:46:32;13.20;92.60
7206;DHT22;3644;53.480;10.004;2023-04-30T09:48:59;12.90;93.30
7206;DHT22;3644;53.480;10.004;2023-04-30T09:51:26;12.90;94.10
7206;DHT22;3644;53.480;10.004;2023-04-30T09:53:53;12.80;92.60
7206;DHT22;3644;53.480;10.004;2023-04-30T09:56:23;12.80;94.10
7206;DHT22;3644;53.480;10.004;2023-04-30T09:58:51;12.80;94.10
7206;DHT22;3644;53.480;10.004;2023-04-30T10:01:19;13.10;94.00
7206;DHT22;3644;53.480;10.004;2023-04-30T10:03:45;13.40;92.30
7206;DHT22;3644;53.480;10.004;2023-04-30T10:06:12;13.50;92.80
7206;DHT22;3644;53.480;10.004;2023-04-30T10:08:41;13.50;91.80
7206;DHT22;3644;53.480;10.004;2023-04-30T10:11:08;13.60;92.20
7206;DHT22;3644;53.480;10.004;2023-04-30T10:13:42;13.70;91.30
7206;DHT22;3644;53.480;10.004;2023-04-30T10:19:17;13.70;90.40
7206;DHT22;3644;53.480;10.004;2023-04-30T10:21:44;13.30;89.40
7206;DHT22;3644;53.480;10.004;2023-04-30T10:24:12;13.40;90.50
7206;DHT22;3644;53.480;10.004;2023-04-30T10:26:39;13.40;91.20
7206;DHT22;3644;53.480;10.004;2023-04-30T10:29:06;13.40;90.50
7206;DHT22;3644;53.480;10.004;2023-04-30T10:31:32;13.70;92.70
7206;DHT22;3644;53.480;10.004;2023-04-30T10:36:45;13.70;90.00
7206;DHT22;3644;53.480;10.004;2023-04-30T10:39:14;13.60;93.10
7206;DHT22;3644;53.480;10.004;2023-04-30T10:41:45;14.00;93.90
7206;DHT22;3644;53.480;10.004;2023-04-30T10:44:21;14.20;92.00
7206;DHT22;3644;53.480;10.004;2023-04-30T10:46:47;14.20;88.80
7206;DHT22;3644;53.480;10.004;2023-04-30T10:49:12;14.20;84.60
7206;DHT22;3644;53.480;10.004;2023-04-30T10:51:51;14.30;86.00
7206;DHT22;3644;53.480;10.004;2023-04-30T10:54:27;14.20;83.00
7206;DHT22;3644;53.480;10.004;2023-04-30T10:56:53;14.30;87.50
7206;DHT22;3644;53.480;10.004;2023-04-30T10:59:21;14.50;85.10
7206;DHT22;3644;53.480;10.004;2023-04-30T11:01:54;14.60;83.20
7206;DHT22;3644;53.480;10.004;2023-04-30T11:04:21;14.70;80.80
7206;DHT22;3644;53.480;10.004;2023-04-30T11:09:19;14.20;85.10
7206;DHT22;3644;53.480;10.004;2023-04-30T11:11:45;14.30;82.50
7206;DHT22;3644;53.480;10.004;2023-04-30T11:14:12;14.70;85.80
7206;DHT22;3644;53.480;10.004;2023-04-30T11:16:48;15.00;83.80
7206;DHT22;3644;53.480;10.004;2023-04-30T11:19:14;15.10;82.20
7206;DHT22;3644;53.480;10.004;2023-04-30T11:27:25;15.20;80.80
7206;DHT22;3644;53.480;10.004;2023-04-30T11:29:52;15.30;79.00
7206;DHT22;3644;53.480;10.004;2023-04-30T11:32:18;15.40;78.50
7206;DHT22;3644;53.480;10.004;2023-04-30T11:34:44;15.50;74.00
7206;DHT22;3644;53.480;10.004;2023-04-30T11:37:18;15.00;71.30
7206;DHT22;3644;53.480;10.004;2023-04-30T11:39:44;14.80;71.80
7206;DHT22;3644;53.480;10.004;2023-04-30T11:42:17;15.00;70.70
7206;DHT22;3644;53.480;10.004;2023-04-30T11:44:44;14.90;71.50
7206;DHT22;3644;53.480;10.004;2023-04-30T11:47:10;15.00;70.40
7206;DHT22;3644;53.480;10.004;2023-04-30T11:49:36;15.30;70.80
7206;DHT22;3644;53.480;10.004;2023-04-30T11:52:01;15.30;67.50
7206;DHT22;3644;53.480;10.004;2023-04-30T11:54:30;15.40;68.60
7206;DHT22;3644;53.480;10.004;2023-04-30T11:56:56;15.60;76.80
7206;DHT22;3644;53.480;10.004;2023-04-30T11:59:28;15.80;72.30
7206;DHT22;3644;53.480;10.004;2023-04-30T12:01:54;15.90;70.40
7206;DHT22;3644;53.480;10.004;2023-04-30T12:04:19;15.90;69.10
7206;DHT22;3644;53.480;10.004;2023-04-30T12:06:46;15.70;68.40
7206;DHT22;3644;53.480;10.004;2023-04-30T12:09:11;15.70;69.90
7206;DHT22;3644;53.480;10.004;2023-04-30T12:11:37;15.90;74.30
7206;DHT22;3644;53.480;10.004;2023-04-30T12:14:08;16.20;77.70
7206;DHT22;3644;53.480;10.004;2023-04-30T12:16:44;16.40;75.00
7206;DHT22;3644;53.480;10.004;2023-04-30T12:19:10;16.50;68.60
7206;DHT22;3644;53.480;10.004;2023-04-30T12:21:37;16.40;71.60
7206;DHT22;3644;53.480;10.004;2023-04-30T12:24:03;16.50;70.70
7206;DHT22;3644;53.480;10.004;2023-04-30T12:26:36;16.60;67.20
7206;DHT22;3644;53.480;10.004;2023-04-30T12:29:05;16.40;66.00
7206;DHT22;3644;53.480;10.004;2023-04-30T12:31:32;16.60;75.50
7206;DHT22;3644;53.480;10.004;2023-04-30T12:34:09;16.70;71.60
7206;DHT22;3644;53.480;10.004;2023-04-30T12:36:35;17.00;71.70
7206;DHT22;3644;53.480;10.004;2023-04-30T12:39:13;17.10;69.30
7206;DHT22;3644;53.480;10.004;2023-04-30T12:41:47;17.10;69.40
7206;DHT22;3644;53.480;10.004;2023-04-30T12:44:14;17.10;68.30
7206;DHT22;3644;53.480;10.004;2023-04-30T12:46:40;16.60;65.60
7206;DHT22;3644;53.480;10.004;2023-04-30T12:49:06;16.80;67.10
7206;DHT22;3644;53.480;10.004;2023-04-30T12:51:34;16.60;66.10
7206;DHT22;3644;53.480;10.004;2023-04-30T12:54:00;16.40;66.10
7206;DHT22;3644;53.480;10.004;2023-04-30T12:56:26;16.30;66.90
7206;DHT22;3644;53.480;10.004;2023-04-30T12:58:51;16.50;66.30
7206;DHT22;3644;53.480;10.004;2023-04-30T13:01:21;16.40;66.00
7206;DHT22;3644;53.480;10.004;2023-04-30T13:03:49;16.80;68.50
7206;DHT22;3644;53.480;10.004;2023-04-30T13:06:14;17.10;65.10
7206;DHT22;3644;53.480;10.004;2023-04-30T13:08:40;17.20;62.50
7206;DHT22;3644;53.480;10.004;2023-04-30T13:11:06;17.30;62.50
7206;DHT22;3644;53.480;10.004;2023-04-30T13:13:31;17.50;63.80
7206;DHT22;3644;53.480;10.004;2023-04-30T13:15:58;17.30;62.20
7206;DHT22;3644;53.480;10.004;2023-04-30T13:18:23;17.40;65.80
7206;DHT22;3644;53.480;10.004;2023-04-30T13:20:49;17.20;62.50
7206;DHT22;3644;53.480;10.004;2023-04-30T13:23:14;17.10;63.10
7206;DHT22;3644;53.480;10.004;2023-04-30T13:25:40;17.10;63.40
7206;DHT22;3644;53.480;10.004;2023-04-30T13:28:06;17.00;64.40
7206;DHT22;3644;53.480;10.004;2023-04-30T13:30:32;17.20;62.60
7206;DHT22;3644;53.480;10.004;2023-04-30T13:32:58;17.20;63.30
7206;DHT22;3644;53.480;10.004;2023-04-30T13:35:24;17.20;61.50
7206;DHT22;3644;53.480;10.004;2023-04-30T13:37:49;17.20;61.00
7206;DHT22;3644;53.480;10.004;2023-04-30T13:40:17;17.30;61.60
7206;DHT22;3644;53.480;10.004;2023-04-30T13:42:44;17.50;61.60
7206;DHT22;3644;53.480;10.004;2023-04-30T13:45:10;17.70;64.00
7206;DHT22;3644;53.480;10.004;2023-04-30T13:47:36;18.00;62.20
7206;DHT22;3644;53.480;10.004;2023-04-30T13:50:03;18.10;62.30
7206;DHT22;3644;53.480;10.004;2023-04-30T13:52:28;17.70;59.40
7206;DHT22;3644;53.480;10.004;2023-04-30T13:54:54;17.80;60.00
7206;DHT22;3644;53.480;10.004;2023-04-30T13:57:20;17.90;60.30
7206;DHT22;3644;53.480;10.004;2023-04-30T13:59:45;17.90;61.20
7206;DHT22;3644;53.480;10.004;2023-04-30T14:02:11;18.10;60.20
7206;DHT22;3644;53.480;10.004;2023-04-30T14:04:36;18.30;59.30
7206;DHT22;3644;53.480;10.004;2023-04-30T14:07:02;17.60;58.70
7206;DHT22;3644;53.480;10.004;2023-04-30T14:09:28;17.30;60.70
7206;DHT22;3644;53.480;10.004;2023-04-30T14:11:54;17.60;65.40
7206;DHT22;3644;53.480;10.004;2023-04-30T14:14:23;17.90;60.50
7206;DHT22;3644;53.480;10.004;2023-04-30T14:16:49;18.20;60.90
7206;DHT22;3644;53.480;10.004;2023-04-30T14:19:14;18.30;58.20
7206;DHT22;3644;53.480;10.004;2023-04-30T14:21:40;18.40;57.50
7206;DHT22;3644;53.480;10.004;2023-04-30T14:24:05;18.50;56.50
7206;DHT22;3644;53.480;10.004;2023-04-30T14:26:31;18.40;57.10
7206;DHT22;3644;53.480;10.004;2023-04-30T14:28:57;18.50;59.00
7206;DHT22;3644;53.480;10.004;2023-04-30T14:31:22;18.20;59.90
7206;DHT22;3644;53.480;10.004;2023-04-30T14:33:48;18.20;59.50
7206;DHT22;3644;53.480;10.004;2023-04-30T14:36:14;18.30;60.30
7206;DHT22;3644;53.480;10.004;2023-04-30T14:38:39;18.30;58.30
7206;DHT22;3644;53.480;10.004;2023-04-30T14:41:05;18.20;58.90
7206;DHT22;3644;53.480;10.004;2023-04-30T14:43:31;18.30;60.50
7206;DHT22;3644;53.480;10.004;2023-04-30T14:45:56;18.50;59.50
7206;DHT22;3644;53.480;10.004;2023-04-30T14:48:22;18.60;60.10
7206;DHT22;3644;53.480;10.004;2023-04-30T14:50:47;18.70;57.10
7206;DHT22;3644;53.480;10.004;2023-04-30T14:53:13;18.60;57.00
7206;DHT22;3644;53.480;10.004;2023-04-30T14:55:39;18.80;59.60
7206;DHT22;3644;53.480;10.004;2023-04-30T14:58:04;19.10;61.00
7206;DHT22;3644;53.480;10.004;2023-04-30T15:00:30;19.20;62.20
7206;DHT22;3644;53.480;10.004;2023-04-30T15:02:56;19.20;59.10
7206;DHT22;3644;53.480;10.004;2023-04-30T15:05:21;19.10;54.60
7206;DHT22;3644;53.480;10.004;2023-04-30T15:07:47;19.10;57.20
7206;DHT22;3644;53.480;10.004;2023-04-30T15:10:13;19.00;54.20
7206;DHT22;3644;53.480;10.004;2023-04-30T15:12:38;19.20;56.00
7206;DHT22;3644;53.480;10.004;2023-04-30T15:15:05;19.00;55.80
7206;DHT22;3644;53.480;10.004;2023-04-30T15:17:31;19.00;54.10
7206;DHT22;3644;53.480;10.004;2023-04-30T15:19:59;19.00;54.40
7206;DHT22;3644;53.480;10.004;2023-04-30T15:22:26;18.80;53.00
7206;DHT22;3644;53.480;10.004;2023-04-30T15:24:52;18.80;53.30
7206;DHT22;3644;53.480;10.004;2023-04-30T15:27:18;18.90;53.20
7206;DHT22;3644;53.480;10.004;2023-04-30T15:29:43;19.20;53.40
7206;DHT22;3644;53.480;10.004;2023-04-30T15:32:11;19.10;52.60
7206;DHT22;3644;53.480;10.004;2023-04-30T15:34:36;19.00;53.10
7206;DHT22;3644;53.480;10.004;2023-04-30T15:37:02;18.30;52.60
7206;DHT22;3644;53.480;10.004;2023-04-30T15:39:27;18.40;52.50
7206;DHT22;3644;53.480;10.004;2023-04-30T15:41:53;18.60;52.20
7206;DHT22;3644;53.480;10.004;2023-04-30T15:44:19;19.00;52.30
7206;DHT22;3644;53.480;10.004;2023-04-30T15:46:44;19.20;53.60
7206;DHT22;3644;53.480;10.004;2023-04-30T15:49:10;19.30;53.40
7206;DHT22;3644;53.480;10.004;2023-04-30T15:51:35;19.40;53.70
7206;DHT22;3644;53.480;10.004;2023-04-30T15:54:02;19.10;52.20
7206;DHT22;3644;53.480;10.004;2023-04-30T15:56:27;18.90;51.70
7206;DHT22;3644;53.480;10.004;2023-04-30T15:58:53;19.10;51.60
7206;DHT22;3644;53.480;10.004;2023-04-30T16:01:19;19.00;50.70
7206;DHT22;3644;53.480;10.004;2023-04-30T16:03:45;18.90;50.20
7206;DHT22;3644;53.480;10.004;2023-04-30T16:06:10;19.10;51.10
7206;DHT22;3644;53.480;10.004;2023-04-30T16:08:36;19.40;50.50
7206;DHT22;3644;53.480;10.004;2023-04-30T16:11:02;19.00;50.00
7206;DHT22;3644;53.480;10.004;2023-04-30T16:13:28;18.70;49.80
7206;DHT22;3644;53.480;10.004;2023-04-30T16:15:54;18.90;50.90
7206;DHT22;3644;53.480;10.004;2023-04-30T16:18:19;18.80;50.70
7206;DHT22;3644;53.480;10.004;2023-04-30T16:20:46;19.00;50.00